createdAt,value
2018-04-30T00:01:39.043Z,14.40
2018-04-30T00:04:06.507Z,14.40
2018-04-30T00:06:34.003Z,14.40
2018-04-30T00:09:02.184Z,14.40
2018-04-30T00:11:30.406Z,14.30
2018-04-30T00:13:57.882Z,14.30
2018-04-30T00:16:25.374Z,14.20
2018-04-30T00:18:53.582Z,14.10
2018-04-30T00:21:21.061Z,14.10
2018-04-30T00:23:48.519Z,14.00
2018-04-30T00:26:15.974Z,13.90
2018-04-30T00:28:43.422Z,13.90
2018-04-30T00:31:10.886Z,13.90
2018-04-30T00:33:38.378Z,13.80
2018-04-30T00:36:05.810Z,13.80
2018-04-30T00:38:33.262Z,13.90
2018-04-30T00:41:00.725Z,13.90
2018-04-30T00:43:28.187Z,14.00
2018-04-30T00:45:55.739Z,13.90
2018-04-30T00:48:23.186Z,13.90
2018-04-30T00:50:50.724Z,13.90
2018-04-30T00:53:18.170Z,13.90
2018-04-30T00:55:45.651Z,13.80
2018-04-30T00:58:13.108Z,13.80
2018-04-30T01:00:40.579Z,13.80
2018-04-30T01:03:08.034Z,13.80
2018-04-30T01:05:35.475Z,13.60
2018-04-30T01:08:02.922Z,13.60
2018-04-30T01:10:30.363Z,13.60
2018-04-30T01:12:58.570Z,13.70
2018-04-30T01:15:26.001Z,13.70
2018-04-30T01:17:53.462Z,13.60
2018-04-30T01:20:20.895Z,13.60
2018-04-30T01:22:48.350Z,13.60
2018-04-30T01:25:15.833Z,13.60
2018-04-30T01:27:43.257Z,13.60
2018-04-30T01:30:10.678Z,13.50
2018-04-30T01:32:38.134Z,13.40
2018-04-30T01:35:05.592Z,13.40
2018-04-30T01:37:33.042Z,13.30
2018-04-30T01:40:00.473Z,13.10
2018-04-30T01:42:27.933Z,13.00
2018-04-30T01:44:55.375Z,13.00
2018-04-30T01:47:23.590Z,12.90
2018-04-30T01:49:51.024Z,12.90
2018-04-30T01:52:18.492Z,12.90
2018-04-30T01:54:45.922Z,12.80
2018-04-30T01:57:14.138Z,12.80
2018-04-30T01:59:41.578Z,12.80
2018-04-30T02:02:09.031Z,12.80
2018-04-30T02:04:36.473Z,12.70
2018-04-30T02:07:04.683Z,12.60
2018-04-30T02:09:32.894Z,12.50
2018-04-30T02:12:00.350Z,12.50
2018-04-30T02:14:27.807Z,12.40
2018-04-30T02:16:55.265Z,12.40
2018-04-30T02:19:22.700Z,12.30
2018-04-30T02:21:50.134Z,12.20
2018-04-30T02:24:17.577Z,12.20
2018-04-30T02:26:45.009Z,12.20
2018-04-30T02:29:13.221Z,12.00
2018-04-30T02:31:40.677Z,12.00
2018-04-30T02:34:08.124Z,11.90
2018-04-30T02:36:35.977Z,11.80
2018-04-30T02:39:03.508Z,11.80
2018-04-30T02:41:30.959Z,11.80
2018-04-30T02:43:58.402Z,11.80
2018-04-30T02:46:25.851Z,11.70
2018-04-30T02:48:53.307Z,11.70
2018-04-30T02:51:20.741Z,11.60
2018-04-30T02:53:48.188Z,11.70
2018-04-30T02:56:15.644Z,11.70
2018-04-30T02:58:43.083Z,11.60
2018-04-30T03:01:11.289Z,11.60
2018-04-30T03:03:38.750Z,11.50
2018-04-30T03:06:06.200Z,11.50
2018-04-30T03:08:33.638Z,11.50
2018-04-30T03:11:01.074Z,11.50
2018-04-30T03:13:28.517Z,11.60
2018-04-30T03:15:55.967Z,11.60
2018-04-30T03:18:23.423Z,11.50
2018-04-30T03:20:50.882Z,11.50
2018-04-30T03:23:18.333Z,11.50
2018-04-30T03:25:45.771Z,11.40
2018-04-30T03:28:13.222Z,11.40
2018-04-30T03:30:40.660Z,11.40
2018-04-30T03:33:08.103Z,11.40
2018-04-30T03:35:35.547Z,11.40
2018-04-30T03:38:03.792Z,11.50
2018-04-30T03:40:31.230Z,11.40
2018-04-30T03:42:58.680Z,11.40
2018-04-30T03:45:26.145Z,11.50
2018-04-30T03:47:53.595Z,11.40
2018-04-30T03:50:21.044Z,11.40
2018-04-30T03:52:48.480Z,11.40
2018-04-30T03:55:16.712Z,11.40
2018-04-30T03:57:44.150Z,11.40
2018-04-30T04:00:23.386Z,11.40
2018-04-30T04:03:02.837Z,11.30
2018-04-30T04:05:42.110Z,11.30
2018-04-30T04:08:09.550Z,11.30
2018-04-30T04:10:37.008Z,11.30
2018-04-30T04:13:04.442Z,11.30
2018-04-30T04:15:31.900Z,11.30
2018-04-30T04:17:59.336Z,11.20
2018-04-30T04:20:26.788Z,11.30
2018-04-30T04:22:54.238Z,11.20
2018-04-30T04:25:21.686Z,11.20
2018-04-30T04:27:49.131Z,11.10
2018-04-30T04:30:17.361Z,11.10
2018-04-30T04:32:44.793Z,11.00
2018-04-30T04:35:12.242Z,11.10
2018-04-30T04:37:39.688Z,11.10
2018-04-30T04:40:07.122Z,11.00
2018-04-30T04:42:35.322Z,11.10
2018-04-30T04:45:02.783Z,11.10
2018-04-30T04:47:30.232Z,11.10
2018-04-30T04:49:58.457Z,11.10
2018-04-30T04:52:25.904Z,11.10
2018-04-30T04:54:53.366Z,11.10
2018-04-30T04:57:20.813Z,11.10
2018-04-30T04:59:48.274Z,11.20
2018-04-30T05:02:15.735Z,11.20
2018-04-30T05:04:43.193Z,11.10
2018-04-30T05:07:10.638Z,11.10
2018-04-30T05:09:38.101Z,11.10
2018-04-30T05:12:05.556Z,11.10
2018-04-30T05:14:33.051Z,11.10
2018-04-30T05:17:00.522Z,11.10
2018-04-30T05:19:27.986Z,11.10
2018-04-30T05:21:55.443Z,11.10
2018-04-30T05:24:23.661Z,11.10
2018-04-30T05:26:51.159Z,11.10
2018-04-30T05:29:19.410Z,11.10
2018-04-30T05:31:46.877Z,11.10
2018-04-30T05:34:14.315Z,11.10
2018-04-30T05:36:41.786Z,11.10
2018-04-30T05:39:09.237Z,11.10
2018-04-30T05:41:36.687Z,11.10
2018-04-30T05:44:04.141Z,11.10
2018-04-30T05:46:31.587Z,11.10
2018-04-30T05:48:59.031Z,11.10
2018-04-30T05:51:26.483Z,11.10
2018-04-30T05:53:53.913Z,11.10
2018-04-30T05:56:22.143Z,11.10
2018-04-30T05:58:49.669Z,11.10
2018-04-30T06:01:17.111Z,11.10
2018-04-30T06:03:45.330Z,11.20
2018-04-30T06:06:13.554Z,11.30
2018-04-30T06:08:41.760Z,11.20
2018-04-30T06:11:09.214Z,11.20
2018-04-30T06:13:36.648Z,11.20
2018-04-30T06:16:04.869Z,11.30
2018-04-30T06:18:32.305Z,11.30
2018-04-30T06:20:59.751Z,11.20
2018-04-30T06:23:27.198Z,11.30
2018-04-30T06:25:56.271Z,11.40
2018-04-30T06:28:23.742Z,11.40
2018-04-30T06:30:51.216Z,11.50
2018-04-30T06:33:18.655Z,11.60
2018-04-30T06:35:47.097Z,11.50
2018-04-30T06:38:14.501Z,11.40
2018-04-30T06:40:41.958Z,11.40
2018-04-30T06:43:09.426Z,11.30
2018-04-30T06:45:36.862Z,11.40
2018-04-30T06:48:05.143Z,11.80
2018-04-30T06:50:33.346Z,12.00
2018-04-30T06:53:00.798Z,12.00
2018-04-30T06:55:28.243Z,12.00
2018-04-30T06:57:55.711Z,11.80
2018-04-30T07:00:23.208Z,11.70
2018-04-30T07:02:50.609Z,11.70
2018-04-30T07:05:18.059Z,11.70
2018-04-30T07:07:46.269Z,11.60
2018-04-30T07:10:13.698Z,11.60
2018-04-30T07:12:41.939Z,11.70
2018-04-30T07:15:09.415Z,11.70
2018-04-30T07:17:36.869Z,11.60
2018-04-30T07:20:04.430Z,11.80
2018-04-30T07:22:31.791Z,12.10
2018-04-30T07:24:59.251Z,12.10
2018-04-30T07:27:26.681Z,12.30
2018-04-30T07:29:54.130Z,12.60
2018-04-30T07:32:21.575Z,12.40
2018-04-30T07:34:49.020Z,12.10
2018-04-30T07:37:16.475Z,11.90
2018-04-30T07:39:43.950Z,11.80
2018-04-30T07:42:11.414Z,12.00
2018-04-30T07:44:38.849Z,12.00
2018-04-30T07:47:06.306Z,11.90
2018-04-30T07:49:33.759Z,12.40
2018-04-30T07:52:01.204Z,12.90
2018-04-30T07:54:28.697Z,13.10
2018-04-30T07:56:56.109Z,12.90
2018-04-30T07:59:23.546Z,12.80
2018-04-30T08:01:51.750Z,12.60
2018-04-30T08:04:19.205Z,12.60
2018-04-30T08:06:46.662Z,12.60
2018-04-30T08:09:14.117Z,12.40
2018-04-30T08:11:41.538Z,12.30
2018-04-30T08:14:09.001Z,12.40
2018-04-30T08:16:37.159Z,12.70
2018-04-30T08:19:04.616Z,13.30
2018-04-30T08:21:32.113Z,13.50
2018-04-30T08:23:59.511Z,13.50
2018-04-30T08:26:26.973Z,13.60
2018-04-30T08:28:54.428Z,14.10
2018-04-30T08:31:21.862Z,14.30
2018-04-30T08:33:49.317Z,14.80
2018-04-30T08:36:16.754Z,14.80
2018-04-30T08:38:44.251Z,14.80
2018-04-30T08:41:11.686Z,14.40
2018-04-30T08:43:39.155Z,13.80
2018-04-30T08:46:06.603Z,13.50
2018-04-30T08:48:34.073Z,13.60
2018-04-30T08:51:01.515Z,13.40
2018-04-30T08:53:28.972Z,13.20
2018-04-30T08:55:56.413Z,13.00
2018-04-30T08:58:23.866Z,13.40
2018-04-30T09:00:51.301Z,13.40
2018-04-30T09:03:18.757Z,13.40
2018-04-30T09:05:46.196Z,14.00
2018-04-30T09:08:13.666Z,15.00
2018-04-30T09:10:41.106Z,15.50
2018-04-30T09:13:08.565Z,15.80
2018-04-30T09:15:36.022Z,15.50
2018-04-30T09:18:03.460Z,15.80
2018-04-30T09:20:30.914Z,15.90
2018-04-30T09:22:58.367Z,15.60
2018-04-30T09:25:25.815Z,15.70
2018-04-30T09:27:53.268Z,15.40
2018-04-30T09:30:20.722Z,14.90
2018-04-30T09:32:48.176Z,14.90
2018-04-30T09:35:15.637Z,14.90
2018-04-30T09:37:43.082Z,14.80
2018-04-30T09:40:10.536Z,14.40
2018-04-30T09:42:37.971Z,14.20
2018-04-30T09:45:05.422Z,14.60
2018-04-30T09:47:32.854Z,14.70
2018-04-30T09:50:00.307Z,14.30
2018-04-30T09:52:27.760Z,14.70
2018-04-30T09:54:55.214Z,14.80
2018-04-30T09:57:22.680Z,14.90
2018-04-30T09:59:50.160Z,14.70
2018-04-30T10:02:17.602Z,14.30
2018-04-30T10:04:45.088Z,14.40
2018-04-30T10:07:12.633Z,14.20
2018-04-30T10:09:40.031Z,14.00
2018-04-30T10:12:07.506Z,14.30
2018-04-30T10:14:34.991Z,15.20
2018-04-30T10:17:02.466Z,16.10
2018-04-30T10:19:29.915Z,16.60
2018-04-30T10:21:57.374Z,17.00
2018-04-30T10:24:24.835Z,17.20
2018-04-30T10:26:52.302Z,15.70
2018-04-30T10:29:19.757Z,15.00
2018-04-30T10:31:47.214Z,16.00
2018-04-30T10:34:14.690Z,17.80
2018-04-30T10:36:42.182Z,19.00
2018-04-30T10:39:09.649Z,18.70
2018-04-30T10:41:37.126Z,18.00
2018-04-30T10:44:04.574Z,17.50
2018-04-30T10:46:32.058Z,17.80
2018-04-30T10:48:59.511Z,17.90
2018-04-30T10:51:26.991Z,18.10
2018-04-30T10:53:55.250Z,16.00
2018-04-30T10:56:23.527Z,15.80
2018-04-30T10:58:50.974Z,15.80
2018-04-30T11:01:18.422Z,16.60
2018-04-30T11:03:45.886Z,16.90
2018-04-30T11:06:13.354Z,16.70
2018-04-30T11:08:40.803Z,17.30
2018-04-30T11:11:08.270Z,18.30
2018-04-30T11:13:35.727Z,18.50
2018-04-30T11:16:03.213Z,18.50
2018-04-30T11:18:31.444Z,19.70
2018-04-30T11:20:58.944Z,19.60
2018-04-30T11:23:27.174Z,19.00
2018-04-30T11:25:54.643Z,19.00
2018-04-30T11:28:22.103Z,19.60
2018-04-30T11:30:49.578Z,20.00
2018-04-30T11:33:17.807Z,19.40
2018-04-30T11:35:45.288Z,19.40
2018-04-30T11:38:12.751Z,20.80
2018-04-30T11:40:40.236Z,21.80
2018-04-30T11:43:08.471Z,19.40
2018-04-30T11:45:35.937Z,19.30
2018-04-30T11:48:03.415Z,17.70
2018-04-30T11:50:31.643Z,18.40
2018-04-30T11:52:59.121Z,18.40
2018-04-30T11:55:26.631Z,19.00
2018-04-30T11:57:54.038Z,18.80
2018-04-30T12:00:21.490Z,18.50
2018-04-30T12:02:48.998Z,18.80
2018-04-30T12:05:16.461Z,18.50
2018-04-30T12:07:43.930Z,17.40
2018-04-30T12:10:11.415Z,17.70
2018-04-30T12:12:38.883Z,18.40
2018-04-30T12:15:06.330Z,17.90
2018-04-30T12:17:33.811Z,16.70
2018-04-30T12:20:02.031Z,18.40
2018-04-30T12:22:29.504Z,18.40
2018-04-30T12:24:56.979Z,19.10
2018-04-30T12:27:24.461Z,19.30
2018-04-30T12:29:52.707Z,19.50
2018-04-30T12:32:20.177Z,19.50
2018-04-30T12:34:47.641Z,18.10
2018-04-30T12:37:15.105Z,18.20
2018-04-30T12:39:42.557Z,17.60
2018-04-30T12:42:10.049Z,17.50
2018-04-30T12:44:38.274Z,16.40
2018-04-30T12:47:05.751Z,16.40
2018-04-30T12:49:33.265Z,16.10
2018-04-30T12:52:00.692Z,16.20
2018-04-30T12:54:28.913Z,15.70
2018-04-30T12:56:56.387Z,15.70
2018-04-30T12:59:23.886Z,15.70
2018-04-30T13:01:51.351Z,15.50
2018-04-30T13:04:18.805Z,15.50
2018-04-30T13:06:46.271Z,15.40
2018-04-30T13:09:13.782Z,15.30
2018-04-30T13:11:41.233Z,15.20
2018-04-30T13:14:08.693Z,15.10
2018-04-30T13:16:36.893Z,15.20
2018-04-30T13:19:04.350Z,15.40
2018-04-30T13:21:31.777Z,15.60
2018-04-30T13:23:59.213Z,16.00
2018-04-30T13:26:26.647Z,15.80
2018-04-30T13:28:54.094Z,15.60
2018-04-30T13:31:21.540Z,15.60
2018-04-30T13:33:50.316Z,14.90
2018-04-30T13:36:17.748Z,14.90
2018-04-30T13:38:45.197Z,14.10
2018-04-30T13:41:12.634Z,13.80
2018-04-30T13:43:40.142Z,13.80
2018-04-30T13:46:07.546Z,13.80
2018-04-30T13:48:35.035Z,13.90
2018-04-30T13:51:02.519Z,14.20
2018-04-30T13:53:30.805Z,14.70
2018-04-30T13:55:59.073Z,14.70
2018-04-30T13:58:26.613Z,14.60
2018-04-30T14:00:54.088Z,14.80
2018-04-30T14:03:21.573Z,15.00
2018-04-30T14:05:49.079Z,14.80
2018-04-30T14:08:16.588Z,14.70
2018-04-30T14:10:44.073Z,14.70
2018-04-30T14:13:11.531Z,14.80
2018-04-30T14:15:38.986Z,14.90
2018-04-30T14:18:06.443Z,15.00
2018-04-30T14:20:33.908Z,15.10
2018-04-30T14:23:01.375Z,15.20
2018-04-30T14:25:28.830Z,15.10
2018-04-30T14:27:56.286Z,14.90
2018-04-30T14:30:23.737Z,14.80
2018-04-30T14:32:51.206Z,15.00
2018-04-30T14:35:18.659Z,15.00
2018-04-30T14:37:46.115Z,14.80
2018-04-30T14:40:13.576Z,14.70
2018-04-30T14:42:41.018Z,14.70
2018-04-30T14:45:08.486Z,14.70
2018-04-30T14:47:35.935Z,14.70
2018-04-30T14:50:03.397Z,14.80
2018-04-30T14:52:30.858Z,14.90
2018-04-30T14:54:58.346Z,15.10
2018-04-30T14:57:25.809Z,15.20
2018-04-30T14:59:53.279Z,15.00
2018-04-30T15:02:21.498Z,15.20
2018-04-30T15:04:48.995Z,15.20
2018-04-30T15:07:16.454Z,15.00
2018-04-30T15:09:43.943Z,14.90
2018-04-30T15:12:11.402Z,14.60
2018-04-30T15:14:38.860Z,14.60
2018-04-30T15:17:06.342Z,14.70
2018-04-30T15:19:33.858Z,14.70
2018-04-30T15:22:01.298Z,14.60
2018-04-30T15:24:29.537Z,14.80
2018-04-30T15:26:57.014Z,14.80
2018-04-30T15:29:24.471Z,14.70
2018-04-30T15:31:51.914Z,14.60
2018-04-30T15:34:19.378Z,14.70
2018-04-30T15:36:46.843Z,14.70
2018-04-30T15:39:14.367Z,14.70
2018-04-30T15:41:41.819Z,14.40
2018-04-30T15:44:09.298Z,14.20
2018-04-30T15:46:37.376Z,14.10
2018-04-30T15:49:04.856Z,13.80
2018-04-30T15:51:32.333Z,13.90
2018-04-30T15:53:59.840Z,13.90
2018-04-30T15:56:27.328Z,13.90
2018-04-30T15:58:54.806Z,13.80
2018-04-30T16:01:23.050Z,13.60
2018-04-30T16:03:50.526Z,13.60
2018-04-30T16:06:17.982Z,13.80
2018-04-30T16:08:45.438Z,13.80
2018-04-30T16:11:12.951Z,13.70
2018-04-30T16:13:40.403Z,13.60
2018-04-30T16:16:07.895Z,13.60
2018-04-30T16:18:35.359Z,13.50
2018-04-30T16:21:02.843Z,13.60
2018-04-30T16:23:31.077Z,13.30
2018-04-30T16:25:58.575Z,13.30
2018-04-30T16:28:26.836Z,13.30
2018-04-30T16:30:54.303Z,13.20
2018-04-30T16:33:22.526Z,13.10
2018-04-30T16:35:49.998Z,13.10
2018-04-30T16:38:17.453Z,12.80
2018-04-30T16:40:44.935Z,12.60
2018-04-30T16:43:12.393Z,12.30
2018-04-30T16:45:39.885Z,12.30
2018-04-30T16:48:07.346Z,12.10
2018-04-30T16:50:34.828Z,12.00
2018-04-30T16:53:02.319Z,12.00
2018-04-30T16:55:29.762Z,12.00
2018-04-30T16:57:57.255Z,12.10
2018-04-30T17:00:24.742Z,12.00
2018-04-30T17:02:52.203Z,12.00
2018-04-30T17:05:19.707Z,12.10
2018-04-30T17:07:47.190Z,12.30
2018-04-30T17:10:15.443Z,12.30
2018-04-30T17:12:42.923Z,12.30
2018-04-30T17:15:11.176Z,12.20
2018-04-30T17:17:38.655Z,12.20
2018-04-30T17:20:06.879Z,12.30
2018-04-30T17:22:34.337Z,12.30
2018-04-30T17:25:01.783Z,12.20
2018-04-30T17:27:29.243Z,12.10
2018-04-30T17:29:56.694Z,12.20
2018-04-30T17:32:24.150Z,12.30
2018-04-30T17:34:51.594Z,12.30
2018-04-30T17:37:19.054Z,12.30
2018-04-30T17:39:46.489Z,12.30
2018-04-30T17:42:14.714Z,12.30
2018-04-30T17:44:42.157Z,12.30
2018-04-30T17:47:09.602Z,12.30
2018-04-30T17:49:37.042Z,12.20
2018-04-30T17:52:05.249Z,12.20
2018-04-30T17:54:32.688Z,12.20
2018-04-30T17:57:00.149Z,12.20
2018-04-30T17:59:27.578Z,12.10
2018-04-30T18:01:55.789Z,11.90
2018-04-30T18:04:23.245Z,11.90
2018-04-30T18:06:50.729Z,11.90
2018-04-30T18:09:18.154Z,11.90
2018-04-30T18:11:45.615Z,11.90
2018-04-30T18:14:13.073Z,11.90
2018-04-30T18:16:40.497Z,11.80
2018-04-30T18:19:08.702Z,11.80
2018-04-30T18:21:36.162Z,11.80
2018-04-30T18:24:03.585Z,11.80
2018-04-30T18:26:31.124Z,11.80
2018-04-30T18:28:58.506Z,11.70
2018-04-30T18:31:26.717Z,11.70
2018-04-30T18:33:54.146Z,11.70
2018-04-30T18:36:21.592Z,11.70
2018-04-30T18:38:49.865Z,11.60
2018-04-30T18:41:17.285Z,11.70
2018-04-30T18:43:45.563Z,11.60
2018-04-30T18:46:13.018Z,11.60
2018-04-30T18:48:40.472Z,11.60
2018-04-30T18:51:07.907Z,11.60
2018-04-30T18:53:35.337Z,11.60
2018-04-30T18:56:02.806Z,11.60
2018-04-30T18:58:30.241Z,11.60
2018-04-30T19:00:58.454Z,11.50
2018-04-30T19:03:25.902Z,11.50
2018-04-30T19:05:53.340Z,11.40
2018-04-30T19:08:21.569Z,11.40
2018-04-30T19:10:49.020Z,11.40
2018-04-30T19:13:16.480Z,11.40
2018-04-30T19:15:44.380Z,11.40
2018-04-30T19:18:11.834Z,11.40
2018-04-30T19:20:40.077Z,11.20
2018-04-30T19:23:07.559Z,11.20
2018-04-30T19:25:35.010Z,11.20
2018-04-30T19:28:02.464Z,11.20
2018-04-30T19:30:30.109Z,11.10
2018-04-30T19:32:58.193Z,11.10
2018-04-30T19:35:25.639Z,11.00
2018-04-30T19:37:53.109Z,11.00
2018-04-30T19:40:20.553Z,11.00
2018-04-30T19:42:48.801Z,11.00
2018-04-30T19:45:16.234Z,10.90
2018-04-30T19:47:44.466Z,10.90
2018-04-30T19:50:13.144Z,10.80
2018-04-30T19:52:40.584Z,10.80
2018-04-30T19:55:09.002Z,10.70
2018-04-30T19:57:37.055Z,10.70
2018-04-30T20:00:05.190Z,10.70
2018-04-30T20:02:33.543Z,10.60
2018-04-30T20:05:01.987Z,10.60
2018-04-30T20:07:29.488Z,10.50
2018-04-30T20:09:58.404Z,10.50
2018-04-30T20:12:25.849Z,10.50
2018-04-30T20:14:53.406Z,10.50
2018-04-30T20:17:20.867Z,10.50
2018-04-30T20:19:48.708Z,10.40
2018-04-30T20:22:16.853Z,10.40
2018-04-30T20:24:44.356Z,10.30
2018-04-30T20:27:12.584Z,10.30
2018-04-30T20:29:40.070Z,10.30
2018-04-30T20:32:12.561Z,10.30
2018-04-30T20:34:41.560Z,10.20
2018-04-30T20:37:09.804Z,10.30
2018-04-30T20:39:37.706Z,10.20
2018-04-30T20:42:05.171Z,10.20
2018-04-30T20:44:33.381Z,10.20
2018-04-30T20:47:00.873Z,10.10
2018-04-30T20:49:28.343Z,10.00
2018-04-30T20:51:55.892Z,10.00
2018-04-30T20:54:24.431Z,9.90
2018-04-30T20:56:51.959Z,9.90
2018-04-30T20:59:19.375Z,9.90
2018-04-30T21:01:47.762Z,9.80
2018-04-30T21:04:15.261Z,9.80
2018-04-30T21:06:42.723Z,9.80
2018-04-30T21:09:15.382Z,9.80
2018-04-30T21:11:43.698Z,9.70
2018-04-30T21:14:11.178Z,9.70
2018-04-30T21:16:39.384Z,9.60
2018-04-30T21:19:08.171Z,9.60
2018-04-30T21:21:35.645Z,9.60
2018-04-30T21:24:03.090Z,9.60
2018-04-30T21:26:31.350Z,9.50
2018-04-30T21:28:58.821Z,9.50
2018-04-30T21:31:27.059Z,9.50
2018-04-30T21:33:54.509Z,9.40
2018-04-30T21:36:21.973Z,9.40
2018-04-30T21:38:49.440Z,9.40
2018-04-30T21:41:16.887Z,9.40
2018-04-30T21:43:44.310Z,9.40
2018-04-30T21:46:11.752Z,9.40
2018-04-30T21:48:39.195Z,9.40
2018-04-30T21:51:07.408Z,9.40
2018-04-30T21:53:34.871Z,9.30
2018-04-30T21:56:03.047Z,9.30
2018-04-30T21:58:30.579Z,9.20
2018-04-30T22:00:58.135Z,9.20
2018-04-30T22:03:25.589Z,9.10
2018-04-30T22:05:53.835Z,8.90
2018-04-30T22:08:21.298Z,8.90
2018-04-30T22:10:49.542Z,8.80
2018-04-30T22:13:17.039Z,8.70
2018-04-30T22:15:45.304Z,8.70
2018-04-30T22:18:12.757Z,8.60
2018-04-30T22:20:40.858Z,8.70
2018-04-30T22:23:08.351Z,8.70
2018-04-30T22:25:35.839Z,8.60
2018-04-30T22:28:03.310Z,8.50
2018-04-30T22:30:30.794Z,8.60
2018-04-30T22:32:58.246Z,8.50
2018-04-30T22:35:25.717Z,8.50
2018-04-30T22:37:54.359Z,8.50
2018-04-30T22:40:22.047Z,8.40
2018-04-30T22:42:50.258Z,8.30
2018-04-30T22:45:17.753Z,8.30
2018-04-30T22:47:45.925Z,8.30
2018-04-30T22:50:13.408Z,8.30
2018-04-30T22:52:40.870Z,8.20
2018-04-30T22:55:09.087Z,8.10
2018-04-30T22:57:36.946Z,8.10
2018-04-30T23:00:04.414Z,8.10
2018-04-30T23:02:31.867Z,8.10
2018-04-30T23:05:00.500Z,8.00
2018-04-30T23:07:28.767Z,7.90
2018-04-30T23:09:56.260Z,7.90
2018-04-30T23:12:23.783Z,7.80
2018-04-30T23:14:51.254Z,7.80
2018-04-30T23:17:19.499Z,7.70
2018-04-30T23:19:46.941Z,7.70
2018-04-30T23:22:15.307Z,7.70
2018-04-30T23:24:42.775Z,7.60
2018-04-30T23:27:10.239Z,7.40
2018-04-30T23:29:37.682Z,7.30
2018-04-30T23:32:05.129Z,7.20
2018-04-30T23:34:32.567Z,7.00
2018-04-30T23:37:00.015Z,7.00
2018-04-30T23:39:28.216Z,6.90
2018-04-30T23:41:55.676Z,6.90
2018-04-30T23:44:23.106Z,6.90
2018-04-30T23:46:50.555Z,6.80
2018-04-30T23:49:18.759Z,6.60
2018-04-30T23:51:46.220Z,6.60
2018-04-30T23:54:13.684Z,6.60
2018-04-30T23:56:41.131Z,6.50
2018-04-30T23:59:08.574Z,6.50
